Lucky Five Ranch (79) Station Data

Red Flag Warning: No
Fire Weather Zone: 258
SDGE Region: Mountain Empire
Lat/Lon: 32.933/-116.528

Observations

Time Wind Speed/Gust Temp(F) RH Fuel Moist Fuel Temp(F) Dewpt(F) Tmax(F) Tmin(F) Accum Precip 10-min Precip SL Press(mb)
4/26 2:40am 9 2 G 4 56° 37% - - 30° 57.2° 52.8° - - -
4/26 2:30am 280 2 G 4 56° 37% - - 30° 57.2° 52.8° - - -
4/26 2:20am 270 0 G 2 55° 38% - - 30° 57.2° 52.8° - - -
4/26 2:10am 25 2 G 5 56° 36% - - 30° 57.2° 52.8° - - -
4/26 2:00am 87 1 G 3 56° 37% - - 30° 56.7° 52.8° - - -
4/26 1:50am 106 0 G 2 55° 38% - - 30° 56.7° 52.8° - - -
4/26 1:40am 86 1 G 4 55° 40% - - 31° 56.7° 52.8° - - -
4/26 1:30am 75 2 G 5 55° 40% - - 31° 56.7° 52.8° - - -
4/26 1:20am 59 2 G 5 55° 40% - - 31° 56.7° 52.8° - - -
4/26 1:10am 24 1 G 5 55° 41% - - 31° 56.7° 52.8° - - -
4/26 1:00am 288 1 G 4 55° 40% - - 31° 56.7° 52.8° - - -
4/26 12:50am 355 1 G 2 55° 40% - - 31° 56.7° 52.8° - - -
4/26 12:40am 41 2 G 6 55° 40% - - 31° 56.7° 52.8° - - -
4/26 12:30am 313 4 G 9 55° 41% - - 31° 56.7° 52.8° - - -
4/26 12:20am 42 2 G 6 54° 43% - - 32° 54.4° 52.8° - - -
4/26 12:10am 356 3 G 7 54° 45% - - 33° 54.2° 52.8° - - -
4/26 12:00am 56 2 G 4 53° 49% - - 34° 53.5° 42° - - -
4/25 11:50pm 145 1 G 3 52° 54% - - 36° 53.4° 42° - - -
4/25 11:40pm 349 2 G 4 52° 53% - - 35° 53.4° 42° - - -
4/25 11:30pm 53 3 G 5 51° 58% - - 37° 53.4° 42° - - -
4/25 11:20pm 285 1 G 2 51° 60% - - 37° 53.4° 42° - - -
4/25 11:10pm 284 1 G 4 52° 59% - - 38° 53.4° 42° - - -
4/25 11:00pm 334 4 G 7 52° 59% - - 37° 53.4° 42° - - -
4/25 10:50pm 31 3 G 6 51° 62% - - 38° 53.4° 42° - - -
4/25 10:40pm 51 2 G 7 51° 64% - - 39° 53.4° 42° - - -
4/25 10:30pm 7 3 G 7 50° 66% - - 39° 53.4° 42° - - -
4/25 10:20pm 359 4 G 9 50° 67% - - 40° 53.4° 42° - - -
4/25 10:10pm 1 4 G 8 50° 69% - - 40° 53.4° 42° - - -
4/25 10:00pm 0 5 G 9 50° 71% - - 40° 53.4° 42° - - -
4/25 9:50pm 31 2 G 5 49° 75% - - 41° 53.4° 42° - - -
4/25 9:40pm 354 4 G 10 49° 76% - - 42° 53.4° 42° - - -
4/25 9:30pm 15 2 G 8 49° 76% - - 42° 53.4° 42° - - -
4/25 9:20pm 346 3 G 9 49° 77% - - 42° 53.4° 42° - - -
4/25 9:10pm 320 6 G 14 49° 77% - - 42° 53.4° 42° - - -
4/25 9:00pm 298 9 G 14 49° 79% - - 43° 53.4° 42° - - -
4/25 8:50pm 284 5 G 14 48° 85% - - 44° 53.4° 42° - - -
4/25 8:40pm 281 7 G 17 48° 89% - - 45° 53.4° 42° - - -
4/25 8:30pm 272 4 G 12 47° 93% - - 46° 53.4° 42° - - -
4/25 8:20pm 307 6 G 12 48° 92% - - 45° 53.4° 42° - - -
4/25 8:10pm 300 8 G 13 47° 96% - - 46° 53.4° 42° - - -
4/25 8:00pm 292 7 G 10 47° 95% - - 46° 53.4° 42° - - -
4/25 7:50pm 303 6 G 12 47° 96% - - 46° 53.4° 42° - - -
4/25 7:40pm 306 3 G 4 48° 96% - - 47° 53.4° 42° - - -
4/25 7:30pm 304 2 G 5 48° 96% - - 47° 53.4° 42° - - -
4/25 7:20pm 321 6 G 11 48° 95% - - 47° 53.4° 42° - - -
4/25 7:10pm 307 6 G 11 48° 94% - - 47° 53.4° 42° - - -
4/25 7:00pm 281 5 G 10 49° 94% - - 47° 53.4° 42° - - -
4/25 6:50pm 266 3 G 9 49° 95% - - 47° 53.4° 42° - - -
4/25 6:40pm 260 3 G 4 49° 96% - - 48° 53.4° 42° - - -
4/25 6:30pm 234 4 G 6 49° 95% - - 48° 53.4° 42° - - -
4/25 6:20pm 231 5 G 6 49° 94% - - 48° 53.4° 42° - - -
4/25 6:10pm 218 3 G 5 50° 94% - - 48° 53.4° 42° - - -
4/25 6:00pm 231 5 G 7 49° 93% - - 48° 53.4° 42° - - -
4/25 5:50pm 253 5 G 8 49° 94% - - 47° 53.4° 42° - - -
4/25 5:40pm 255 8 G 11 50° 93% - - 48° 53.4° 42° - - -
4/25 5:30pm 258 7 G 11 50° 89% - - 47° 53.4° 42° - - -
4/25 5:20pm 243 7 G 11 50° 86% - - 46° 53.4° 42° - - -
4/25 5:10pm 250 8 G 12 51° 84% - - 46° 53.4° 42° - - -
4/25 5:00pm 249 8 G 12 51° 85% - - 46° 53.4° 42° - - -
4/25 4:50pm 249 9 G 13 51° 82% - - 46° 53.4° 42° - - -
4/25 4:40pm 252 7 G 11 52° 78% - - 45° 53.4° 42° - - -
4/25 4:30pm 256 6 G 11 51° 79% - - 45° 53.4° 42° - - -
4/25 4:20pm 260 7 G 12 51° 82% - - 45° 53.4° 42° - - -
4/25 4:10pm 243 9 G 14 50° 87% - - 47° 53.4° 42° - - -
4/25 4:00pm 246 10 G 15 50° 87% - - 46° 53.4° 42° - - -
4/25 3:50pm 247 10 G 15 50° 85% - - 46° 53.4° 42° - - -
4/25 3:40pm 257 12 G 18 51° 81% - - 45° 53.4° 42° - - -
4/25 3:30pm 249 10 G 17 50° 83% - - 45° 53.4° 42° - - -
4/25 3:20pm 241 10 G 16 51° 82% - - 45° 53.4° 42° - - -
4/25 3:10pm 247 13 G 19 50° 81% - - 45° 53.4° 42° - - -
4/25 3:00pm 247 13 G 18 50° 82% - - 45° 53.4° 42° - - -
4/25 2:50pm 239 14 G 20 50° 78% - - 44° 53.4° 42° - - -
4/25 2:40pm 256 15 G 22 52° 73% - - 43° 53.4° 42° - - -
4/25 2:30pm 237 13 G 22 52° 71% - - 43° 53.4° 42° - - -
4/25 2:20pm 247 13 G 20 52° 71% - - 43° 53.4° 42° - - -
4/25 2:10pm 241 12 G 22 52° 71% - - 43° 53° 42° - - -
4/25 2:00pm 248 15 G 21 52° 72% - - 43° 53° 42° - - -
4/25 1:50pm 250 17 G 23 53° 68% - - 42° 53° 42° - - -
4/25 1:40pm 244 16 G 23 52° 71% - - 43° 53° 42° - - -
4/25 1:30pm 250 18 G 24 52° 69% - - 42° 53° 42° - - -
4/25 1:20pm 251 20 G 27 51° 69% - - 42° 52.7° 42° - - -
4/25 1:10pm 246 16 G 22 51° 71% - - 42° 52.7° 42° - - -
4/25 1:00pm 243 15 G 24 51° 72% - - 43° 52.7° 42° - - -
4/25 12:50pm 248 17 G 23 51° 70% - - 41° 52.7° 42° - - -
4/25 12:40pm 244 15 G 24 50° 73% - - 42° 52.7° 42° - - -
4/25 12:30pm 248 13 G 24 51° 72% - - 42° 52.7° 42° - - -
4/25 12:20pm 237 12 G 17 51° 71% - - 42° 52.7° 42° - - -
4/25 12:10pm 241 14 G 21 50° 74% - - 42° 52.7° 42° - - -
4/25 12:00pm 242 13 G 22 50° 75% - - 42° 52.7° 42° - - -
4/25 11:50am 235 13 G 22 50° 73% - - 42° 52.7° 42° - - -
4/25 11:40am 250 15 G 22 50° 72% - - 41° 52.7° 42° - - -
4/25 11:30am 242 16 G 23 49° 74% - - 42° 52.7° 42° - - -
4/25 11:20am 224 13 G 20 49° 76% - - 42° 52.7° 42° - - -
4/25 11:10am 213 14 G 23 48° 79% - - 42° 52.7° 42° - - -
4/25 11:00am 238 12 G 19 49° 79% - - 43° 52.7° 42° - - -
4/25 10:50am 218 13 G 24 49° 73% - - 41° 52.7° 42° - - -
4/25 10:40am 208 10 G 17 51° 68% - - 41° 52.7° 42° - - -
4/25 10:30am 219 6 G 11 52° 56% - - 37° 52.7° 42° - - -
4/25 10:20am 227 10 G 17 50° 62% - - 38° 50.8° 42° - - -
4/25 10:10am 252 14 G 20 49° 66% - - 38° 49.6° 42° - - -
4/25 10:00am 257 18 G 28 48° 71% - - 39° 48.9° 42° - - -
4/25 9:50am 262 22 G 31 48° 70% - - 39° 48.5° 42° - - -
4/25 9:40am 269 20 G 27 48° 73% - - 39° 48° 42° - - -
4/25 9:30am 265 20 G 27 47° 74% - - 39° 47.7° 42° - - -
4/25 9:20am 263 19 G 27 47° 75% - - 39° 47.7° 42° - - -
4/25 9:10am 260 20 G 26 47° 71% - - 38° 47.7° 42° - - -
4/25 9:00am 276 19 G 27 47° 72% - - 38° 47.3° 42° - - -
4/25 8:50am 266 18 G 24 46° 82% - - 41° 46.2° 42° - - -
4/25 8:40am 264 16 G 19 45° 84% - - 41° 45.9° 42° - - -
4/25 8:30am 264 14 G 20 45° 89% - - 42° 45.9° 42° - - -
4/25 8:20am 253 14 G 19 45° 93% - - 43° 44.9° 42° - - -
4/25 8:10am 259 16 G 22 44° 99% - - 43° 44.3° 42° - - -
4/25 8:00am 256 13 G 19 43° 100% - - 44° 43.8° 42° - - -
4/25 7:50am 251 11 G 18 43° 100% - - 43° 43.4° 42° - - -
4/25 7:40am 245 11 G 19 43° 100% - - 43° 43.4° 42° - - -
4/25 7:30am 245 10 G 18 43° 100% - - 43° 43.1° 42° - - -
4/25 7:20am 242 11 G 17 43° 100% - - 43° 43° 42° - - -
4/25 7:10am 237 9 G 15 42° 100% - - 42° 43° 42° - - -
4/25 7:00am 223 10 G 16 42° 100% - - 42° 43° 42° - - -
4/25 6:50am 211 10 G 21 42° 100% - - 42° 43° 42° - - -
4/25 6:40am 227 10 G 17 42° 100% - - 42° 43° 42° - - -
4/25 6:30am 204 10 G 18 42° 100% - - 42° 43° 42° - - -
4/25 6:20am 180 10 G 19 42° 100% - - 42° 43° 42° - - -
4/25 6:10am 192 8 G 17 42° 100% - - 42° 43° 42° - - -
4/25 6:00am 188 9 G 15 42° 100% - - 42° 43° 42° - - -
4/25 5:50am 216 8 G 13 42° 100% - - 42° 43° 42° - - -
4/25 5:40am 189 10 G 15 42° 100% - - 42° 43° 42° - - -
4/25 5:30am 206 7 G 15 42° 100% - - 42° 43° 42° - - -
4/25 5:20am 222 11 G 22 42° 100% - - 42° 43° 42° - - -
4/25 5:10am 221 10 G 18 43° 100% - - 43° 43° 42° - - -
4/25 5:00am 205 9 G 15 43° 100% - - 43° 43° 42° - - -
4/25 4:50am 219 10 G 16 43° 100% - - 43° 43° 42° - - -
4/25 4:40am 219 8 G 14 43° 100% - - 43° 43° 42° - - -
4/25 4:30am 219 10 G 20 43° 100% - - 43° 43° 42° - - -
4/25 4:20am 200 9 G 19 43° 100% - - 43° 43° 42° - - -
4/25 4:10am 190 12 G 22 43° 100% - - 43° 43° 42° - - -
4/25 4:00am 228 11 G 21 43° 100% - - 43° 43° 42° - - -
4/25 3:50am 207 12 G 19 43° 100% - - 43° 43° 42° - - -
4/25 3:40am 191 12 G 30 43° 100% - - 43° 43° 42° - - -
4/25 3:30am 187 11 G 24 43° 100% - - 43° 43° 42° - - -
4/25 3:20am 215 11 G 18 43° 100% - - 43° 43° 42° - - -
4/25 3:10am 197 11 G 22 43° 100% - - 43° 43° 42° - - -
4/25 3:00am 217 10 G 21 43° 100% - - 43° 43° 42° - - -
4/25 2:50am 194 11 G 21 43° 100% - - 43° 43° 42° - - -
4/25 2:40am 192 12 G 23 43° 100% - - 43° 43° 42° - - -
4/25 2:30am 197 11 G 23 43° 100% - - 43° 43° 42° - - -
4/25 2:20am 219 9 G 16 43° 100% - - 43° 43° 42° - - -
4/25 2:10am 210 9 G 20 43° 100% - - 43° 43° 42° - - -
4/25 2:00am 203 9 G 14 43° 100% - - 43° 43° 42° - - -
4/25 1:50am 181 11 G 21 43° 100% - - 43° 43° 42° - - -
4/25 1:40am 179 11 G 20 43° 100% - - 43° 43° 42° - - -
4/25 1:30am 185 11 G 22 43° 100% - - 43° 42.9° 42° - - -
4/25 1:20am 189 9 G 16 43° 100% - - 43° 42.9° 42° - - -
4/25 1:10am 151 13 G 22 43° 100% - - 43° 42.8° 42° - - -
4/25 1:00am 170 10 G 18 43° 100% - - 43° 42.8° 42° - - -
4/25 12:50am 177 9 G 17 42° 100% - - 42° 42.8° 42° - - -
4/25 12:40am 174 9 G 17 42° 100% - - 42° 42.8° 42° - - -
4/25 12:30am 170 8 G 13 42° 100% - - 43° 42.8° 42° - - -
4/25 12:20am 154 10 G 20 42° 100% - - 42° 42.7° 42° - - -
4/25 12:10am 154 12 G 21 42° 100% - - 42° 42.5° 42° - - -
4/25 12:00am 174 11 G 21 42° 100% - - 42° 61.7° 42° - - -
4/24 11:50pm 220 10 G 21 42° 100% - - 42° 61.7° 42.2° - - -
4/24 11:40pm 234 10 G 22 43° 100% - - 43° 61.7° 42.3° - - -
4/24 11:30pm 222 7 G 16 43° 100% - - 43° 61.7° 42.3° - - -
4/24 11:20pm 173 11 G 24 43° 95% - - 42° 61.7° 42.5° - - -
4/24 11:10pm 172 10 G 21 44° 83% - - 39° 61.7° 43.1° - - -
4/24 11:00pm 151 11 G 19 44° 81% - - 38° 61.7° 43.5° - - -
4/24 10:50pm 154 11 G 16 44° 80% - - 38° 61.7° 43.7° - - -
4/24 10:40pm 161 9 G 14 44° 78% - - 38° 61.7° 43.7° - - -
4/24 10:30pm 156 10 G 15 44° 81% - - 39° 61.7° 43.7° - - -
4/24 10:20pm 160 10 G 16 44° 86% - - 40° 61.7° 43.9° - - -
4/24 10:10pm 159 10 G 13 44° 78% - - 38° 61.7° 44° - - -
4/24 10:00pm 150 11 G 15 45° 78% - - 38° 61.7° 44.2° - - -
4/24 9:50pm 151 11 G 17 45° 75% - - 37° 61.7° 44.5° - - -
4/24 9:40pm 182 9 G 15 45° 73% - - 37° 61.7° 44.8° - - -
4/24 9:30pm 159 8 G 16 45° 68% - - 35° 61.7° 45.2° - - -
4/24 9:20pm 165 9 G 14 45° 69% - - 36° 61.7° 45.2° - - -
4/24 9:10pm 159 8 G 16 46° 68% - - 36° 61.7° 45.4° - - -
4/24 9:00pm 167 8 G 14 46° 69% - - 36° 61.7° 45.5° - - -
4/24 8:50pm 174 8 G 15 46° 72% - - 37° 61.7° 45.5° - - -
4/24 8:40pm 161 10 G 14 46° 80% - - 40° 61.7° 45.5° - - -
4/24 8:30pm 180 8 G 13 46° 87% - - 43° 61.7° 45.9° - - -
4/24 8:20pm 182 10 G 16 47° 85% - - 42° 61.7° 46.3° - - -
4/24 8:10pm 202 8 G 12 47° 89% - - 44° 61.7° 46.4° - - -
4/24 8:00pm 207 8 G 12 47° 82% - - 42° 61.7° 46.9° - - -
4/24 7:50pm 205 8 G 11 47° 83% - - 43° 61.7° 47.2° - - -
4/24 7:40pm 211 7 G 12 48° 82% - - 43° 61.7° 47.5° - - -
4/24 7:30pm 195 8 G 11 48° 81% - - 43° 61.7° 47.9° - - -
4/24 7:20pm 185 7 G 12 48° 83% - - 43° 61.7° 48.1° - - -
4/24 7:10pm 187 9 G 14 49° 82% - - 44° 61.7° 48.4° - - -
4/24 7:00pm 189 9 G 14 49° 82% - - 44° 61.7° 48.7° - - -
4/24 6:50pm 197 9 G 13 49° 81% - - 44° 61.7° 48.8° - - -
4/24 6:40pm 194 8 G 13 50° 78% - - 43° 61.7° 49.5° - - -
4/24 6:30pm 196 8 G 12 51° 76% - - 44° 61.7° 49.9° - - -
4/24 6:20pm 211 8 G 15 51° 77% - - 44° 61.7° 49.9° - - -
4/24 6:10pm 213 8 G 16 52° 74% - - 44° 61.7° 49.9° - - -
4/24 6:00pm 199 7 G 14 53° 71% - - 44° 61.7° 49.9° - - -